Welcome to Northern Hawkes Bay. New Zealand.
PWS Header
      nz Flag



Hit Counter


W3C Valid W3C Valid logo


    Wairoa

Select any of the Stations below to visit their websites.










Historic Data from Weather Underground
Select the location of interest below. Wairoa is the default. Please have patience, this Data is slow to load in.
Northern Hawkes Bay Historical Data
Daily Summary for August 6, 2017 Units:  Metric    English   Both
« Previous Day
Next Day »
Daily Weekly Monthly Yearly Custom
  High: Low: Average:
Temperature: 16.6 °C 2.4 °C 9.5 °C
Dew Point: 7.7 °C 2.0 °C 5.5 °C
Humidity: 99% 47% 78%
Wind Speed: 15.8km/h 0.0km/h 6.3km/h
Wind Gust: 25.6km/h - -
Wind- - West
Pressure: 1027.0 hPa 1021.6 hPa -
Precipitation: 0.3 mm    
Historical Graphs
 
 
Tabular Data for August 6, 2017
Time Temperature Dew Point Pressure Wind Wind Speed Wind Gust Humidity Rainfall Rate (Hourly) solar
00:02 5.1 °C 4.9 °C 1026.6 hPa NNW 6.1 km/h 12.2 km/h 99% 0.0 mm 0 W/m2
00:07 5.1 °C 4.9 °C 1027.0 hPa NNW 7.2 km/h 13.4 km/h 99% 0.0 mm 0 W/m2
00:12 5.1 °C 4.9 °C 1027.0 hPa NW 7.2 km/h 13.4 km/h 99% 0.0 mm 0 W/m2
00:17 5.0 °C 4.8 °C 1027.0 hPa NW 5.0 km/h 13.4 km/h 99% 0.0 mm 0 W/m2
00:22 5.0 °C 4.8 °C 1027.0 hPa North 2.6 km/h 11.1 km/h 99% 0.0 mm 0 W/m2
00:27 4.9 °C 4.8 °C 1027.0 hPa NNW 6.1 km/h 12.2 km/h 99% 0.0 mm 0 W/m2
00:32 4.9 °C 4.8 °C 1027.0 hPa NNW 6.1 km/h 12.2 km/h 99% 0.0 mm 0 W/m2
00:37 4.9 °C 4.8 °C 1027.0 hPa NNW 9.7 km/h 12.2 km/h 99% 0.0 mm 0 W/m2
00:42 4.9 °C 4.8 °C 1027.0 hPa NNW 8.7 km/h 12.2 km/h 99% 0.0 mm 0 W/m2
00:47 5.0 °C 4.8 °C 1026.6 hPa NNW 3.5 km/h 12.2 km/h 99% 0.0 mm 0 W/m2
00:52 5.0 °C 4.8 °C 1026.6 hPa NNW 6.1 km/h 9.7 km/h 99% 0.0 mm 0 W/m2
00:57 5.0 °C 4.8 °C 1026.6 hPa NNW 7.2 km/h 11.1 km/h 99% 0.0 mm 0 W/m2
01:01 4.9 °C 4.8 °C 1026.6 hPa NW 7.2 km/h 12.2 km/h 99% 0.0 mm 0 W/m2
01:06 4.8 °C 4.7 °C 1026.6 hPa NNW 7.2 km/h 12.2 km/h 99% 0.0 mm 0 W/m2
01:11 4.7 °C 4.6 °C 1026.6 hPa NNW 7.2 km/h 13.4 km/h 99% 0.0 mm 0 W/m2
01:16 4.7 °C 4.6 °C 1026.6 hPa NNW 7.2 km/h 15.8 km/h 99% 0.0 mm 0 W/m2
01:21 4.6 °C 4.4 °C 1026.6 hPa NNW 8.7 km/h 15.8 km/h 99% 0.0 mm 0 W/m2
01:26 4.6 °C 4.4 °C 1026.6 hPa NNW 9.7 km/h 15.8 km/h 99% 0.0 mm 0 W/m2
01:31 4.4 °C 4.3 °C 1026.6 hPa NNW 12.2 km/h 14.8 km/h 99% 0.0 mm 0 W/m2
01:36 4.2 °C 4.1 °C 1027.0 hPa NNW 5.0 km/h 14.8 km/h 99% 0.0 mm 0 W/m2
01:41 4.4 °C 4.3 °C 1027.0 hPa NNW 7.2 km/h 13.4 km/h 99% 0.0 mm 0 W/m2
01:46 4.4 °C 4.3 °C 1027.0 hPa NNW 6.1 km/h 14.8 km/h 99% 0.0 mm 0 W/m2
01:51 4.4 °C 4.3 °C 1027.0 hPa NNW 9.7 km/h 19.5 km/h 99% 0.0 mm 0 W/m2
01:56 4.2 °C 4.1 °C 1027.0 hPa North 8.7 km/h 19.5 km/h 99% 0.0 mm 0 W/m2
02:01 4.2 °C 4.1 °C 1026.6 hPa North 8.7 km/h 14.8 km/h 99% 0.0 mm 0 W/m2
02:06 4.2 °C 4.1 °C 1026.6 hPa North 5.0 km/h 13.4 km/h 99% 0.0 mm 0 W/m2
02:11 4.2 °C 4.1 °C 1026.6 hPa NNW 6.1 km/h 13.4 km/h 99% 0.0 mm 0 W/m2
02:16 4.2 °C 4.1 °C 1026.6 hPa NNW 3.5 km/h 12.2 km/h 99% 0.0 mm 0 W/m2
02:21 4.1 °C 3.9 °C 1026.6 hPa North 6.1 km/h 11.1 km/h 99% 0.0 mm 0 W/m2
02:26 4.0 °C 3.8 °C 1026.6 hPa North 3.5 km/h 11.1 km/h 99% 0.0 mm 0 W/m2
02:31 4.0 °C 3.8 °C 1026.6 hPa NNW 8.7 km/h 12.2 km/h 99% 0.0 mm 0 W/m2
02:36 3.9 °C 3.8 °C 1026.3 hPa NNW 8.7 km/h 13.4 km/h 99% 0.0 mm 0 W/m2
02:41 3.8 °C 3.7 °C 1026.3 hPa NNW 6.1 km/h 13.4 km/h 99% 0.0 mm 0 W/m2
02:46 3.8 °C 3.7 °C 1026.3 hPa NNW 9.7 km/h 14.8 km/h 99% 0.0 mm 0 W/m2
02:51 3.7 °C 3.6 °C 1026.3 hPa NNW 8.7 km/h 14.8 km/h 99% 0.0 mm 0 W/m2
02:56 3.8 °C 3.7 °C 1026.3 hPa North 6.1 km/h 14.8 km/h 99% 0.0 mm 0 W/m2
03:01 3.8 °C 3.7 °C 1026.0 hPa North 9.7 km/h 17.2 km/h 99% 0.0 mm 0 W/m2
03:06 4.0 °C 3.8 °C 1026.0 hPa NNW 8.7 km/h 17.2 km/h 99% 0.0 mm 0 W/m2
03:11 3.8 °C 3.7 °C 1026.0 hPa North 6.1 km/h 17.2 km/h 99% 0.0 mm 0 W/m2
03:16 3.7 °C 3.6 °C 1026.0 hPa North 6.1 km/h 12.2 km/h 99% 0.0 mm 0 W/m2
03:21 3.6 °C 3.4 °C 1026.0 hPa North 6.1 km/h 9.7 km/h 99% 0.0 mm 0 W/m2
03:26 3.5 °C 3.3 °C 1026.0 hPa NNW 5.0 km/h 9.7 km/h 99% 0.0 mm 0 W/m2
03:31 3.6 °C 3.4 °C 1026.0 hPa NNW 6.1 km/h 13.4 km/h 99% 0.0 mm 0 W/m2
03:36 3.6 °C 3.4 °C 1025.6 hPa NNW 6.1 km/h 13.4 km/h 99% 0.0 mm 0 W/m2
03:41 3.5 °C 3.3 °C 1026.0 hPa NNW 3.5 km/h 11.1 km/h 99% 0.0 mm 0 W/m2
03:46 3.5 °C 3.3 °C 1025.6 hPa NNW 5.0 km/h 8.7 km/h 99% 0.0 mm 0 W/m2
03:51 3.4 °C 3.3 °C 1025.6 hPa NNW 7.2 km/h 9.7 km/h 99% 0.0 mm 0 W/m2
03:56 3.3 °C 3.2 °C 1025.3 hPa NNW 9.7 km/h 12.2 km/h 99% 0.0 mm 0 W/m2
04:01 3.3 °C 3.2 °C 1025.3 hPa NNW 7.2 km/h 13.4 km/h 99% 0.0 mm 0 W/m2
04:06 3.2 °C 3.1 °C 1025.6 hPa NW 7.2 km/h 13.4 km/h 99% 0.0 mm 0 W/m2
04:11 3.1 °C 2.9 °C 1025.6 hPa NW 5.0 km/h 13.4 km/h 99% 0.0 mm 0 W/m2
04:16 3.0 °C 2.8 °C 1025.6 hPa NNW 6.1 km/h 11.1 km/h 99% 0.0 mm 0 W/m2
04:21 3.0 °C 2.8 °C 1025.3 hPa NNW 7.2 km/h 12.2 km/h 99% 0.0 mm 0 W/m2
04:26 3.1 °C 2.9 °C 1025.6 hPa NNW 5.0 km/h 12.2 km/h 99% 0.0 mm 0 W/m2
04:31 3.2 °C 3.1 °C 1025.3 hPa North 7.2 km/h 12.2 km/h 99% 0.0 mm 0 W/m2
04:36 3.3 °C 3.2 °C 1025.3 hPa North 5.0 km/h 11.1 km/h 99% 0.0 mm 0 W/m2
04:41 3.2 °C 3.1 °C 1025.3 hPa NNW 6.1 km/h 11.1 km/h 99% 0.0 mm 0 W/m2
04:46 3.1 °C 2.9 °C 1025.3 hPa NNW 6.1 km/h 9.7 km/h 99% 0.0 mm 0 W/m2
04:51 3.0 °C 2.8 °C 1025.3 hPa NW 7.2 km/h 9.7 km/h 99% 0.0 mm 0 W/m2
04:56 2.9 °C 2.5 °C 1025.3 hPa NW 7.2 km/h 12.2 km/h 97% 0.0 mm 0 W/m2
05:01 2.9 °C 2.5 °C 1025.6 hPa NNW 8.7 km/h 12.2 km/h 97% 0.0 mm 0 W/m2
05:06 2.9 °C 2.5 °C 1025.3 hPa NW 8.7 km/h 13.4 km/h 97% 0.0 mm 0 W/m2
05:16 2.9 °C 2.5 °C 1025.3 hPa NNW 8.7 km/h 12.2 km/h 97% 0.0 mm 0 W/m2
05:26 2.8 °C 2.4 °C 1025.6 hPa NW 6.1 km/h 11.1 km/h 97% 0.0 mm 0 W/m2
05:31 2.8 °C 2.4 °C 1025.6 hPa NW 3.5 km/h 9.7 km/h 97% 0.0 mm 0 W/m2
05:36 2.8 °C 2.4 °C 1025.6 hPa NW 6.1 km/h 11.1 km/h 97% 0.0 mm 0 W/m2
05:41 2.8 °C 2.4 °C 1025.3 hPa NNW 6.1 km/h 12.2 km/h 97% 0.0 mm 0 W/m2
05:46 2.7 °C 2.3 °C 1025.3 hPa NW 8.7 km/h 12.2 km/h 97% 0.0 mm 0 W/m2
06:05 2.5 °C 2.1 °C 1024.9 hPa NW 7.2 km/h 14.8 km/h 97% 0.0 mm 0 W/m2
06:10 2.4 °C 2.0 °C 1025.3 hPa NW 8.7 km/h 14.8 km/h 97% 0.0 mm 0 W/m2
06:15 2.4 °C 2.0 °C 1025.3 hPa NW 7.2 km/h 12.2 km/h 97% 0.0 mm 0 W/m2
06:20 2.5 °C 2.1 °C 1024.9 hPa NW 6.1 km/h 12.2 km/h 97% 0.0 mm 0 W/m2
06:25 2.5 °C 2.1 °C 1025.3 hPa NW 9.7 km/h 13.4 km/h 97% 0.0 mm 0 W/m2
06:30 2.5 °C 2.1 °C 1025.3 hPa NNW 13.4 km/h 14.8 km/h 97% 0.0 mm 0 W/m2
06:35 2.5 °C 2.1 °C 1025.3 hPa NW 8.7 km/h 14.8 km/h 97% 0.0 mm 0 W/m2
06:40 2.5 °C 2.1 °C 1025.3 hPa NNW 8.7 km/h 13.4 km/h 97% 0.0 mm 0 W/m2
06:46 2.5 °C 2.1 °C 1025.6 hPa NNW 6.1 km/h 13.4 km/h 97% 0.0 mm 0 W/m2
06:51 2.5 °C 2.1 °C 1025.6 hPa NNW 6.1 km/h 13.4 km/h 97% 0.0 mm 0 W/m2
06:56 2.5 °C 2.1 °C 1025.6 hPa NNW 3.5 km/h 9.7 km/h 97% 0.0 mm 0 W/m2
07:01 2.5 °C 2.1 °C 1025.6 hPa North 7.2 km/h 13.4 km/h 97% 0.0 mm 0 W/m2
07:06 2.5 °C 2.1 °C 1025.6 hPa North 5.0 km/h 14.8 km/h 97% 0.0 mm 0 W/m2
07:11 2.4 °C 2.0 °C 1025.6 hPa North 6.1 km/h 14.8 km/h 97% 0.0 mm 1 W/m2
07:16 2.5 °C 2.1 °C 1025.6 hPa North 5.0 km/h 9.7 km/h 97% 0.0 mm 3 W/m2
07:21 2.5 °C 2.1 °C 1025.6 hPa NNW 5.0 km/h 9.7 km/h 97% 0.0 mm 6 W/m2
07:37 2.9 °C 2.5 °C 1025.6 hPa NNW 7.2 km/h 12.2 km/h 97% 0.0 mm 77 W/m2
07:42 3.0 °C 2.8 °C 1025.6 hPa NNW 8.7 km/h 12.2 km/h 99% 0.0 mm 93 W/m2
07:47 3.0 °C 2.8 °C 1025.6 hPa NNW 9.7 km/h 14.8 km/h 99% 0.0 mm 106 W/m2
07:52 3.2 °C 3.1 °C 1025.6 hPa NW 9.7 km/h 14.8 km/h 99% 0.0 mm 118 W/m2
07:57 3.3 °C 3.2 °C 1025.6 hPa NW 9.7 km/h 14.8 km/h 99% 0.0 mm 128 W/m2
08:02 3.5 °C 3.3 °C 1025.6 hPa NW 6.1 km/h 13.4 km/h 99% 0.3 mm 139 W/m2
08:07 3.7 °C 3.6 °C 1025.6 hPa NW 7.2 km/h 14.8 km/h 99% 0.3 mm 147 W/m2
08:12 3.9 °C 3.8 °C 1025.6 hPa NW 5.0 km/h 14.8 km/h 99% 0.3 mm 155 W/m2
08:17 4.1 °C 3.9 °C 1025.6 hPa NW 6.1 km/h 13.4 km/h 99% 0.3 mm 163 W/m2
08:22 4.2 °C 4.1 °C 1026.0 hPa NNW 11.1 km/h 17.2 km/h 99% 0.3 mm 170 W/m2
08:27 4.4 °C 4.3 °C 1025.6 hPa NW 7.2 km/h 17.2 km/h 99% 0.3 mm 177 W/m2
08:32 4.7 °C 4.6 °C 1026.0 hPa NNW 7.2 km/h 15.8 km/h 99% 0.3 mm 184 W/m2
08:37 4.8 °C 4.7 °C 1025.6 hPa NNW 11.1 km/h 14.8 km/h 99% 0.3 mm 190 W/m2
08:42 5.0 °C 4.7 °C 1026.0 hPa NW 8.7 km/h 13.4 km/h 98% 0.3 mm 197 W/m2
08:47 5.3 °C 4.9 °C 1025.6 hPa NNW 6.1 km/h 13.4 km/h 97% 0.3 mm 204 W/m2
08:52 5.7 °C 5.3 °C 1026.0 hPa NNW 7.2 km/h 13.4 km/h 97% 0.3 mm 213 W/m2
08:57 5.8 °C 5.1 °C 1025.6 hPa NNW 7.2 km/h 12.2 km/h 95% 0.3 mm 220 W/m2
09:02 6.0 °C 4.9 °C 1025.6 hPa NNW 9.7 km/h 13.4 km/h 93% 0.0 mm 227 W/m2
09:07 6.1 °C 4.7 °C 1026.0 hPa NNW 6.1 km/h 15.8 km/h 91% 0.0 mm 232 W/m2
09:12 6.6 °C 5.2 °C 1025.6 hPa NNW 7.2 km/h 15.8 km/h 91% 0.0 mm 250 W/m2
09:17 7.1 °C 5.6 °C 1026.0 hPa NW 3.5 km/h 11.1 km/h 90% 0.0 mm 274 W/m2
09:22 7.4 °C 5.6 °C 1025.6 hPa NNW 6.1 km/h 11.1 km/h 88% 0.0 mm 288 W/m2
09:27 7.5 °C 5.3 °C 1026.0 hPa North 6.1 km/h 12.2 km/h 86% 0.0 mm 286 W/m2
09:32 7.9 °C 5.6 °C 1025.6 hPa North 5.0 km/h 12.2 km/h 85% 0.0 mm 289 W/m2
09:37 8.2 °C 5.8 °C 1025.6 hPa North 6.1 km/h 13.4 km/h 85% 0.0 mm 282 W/m2
09:42 8.7 °C 6.3 °C 1025.6 hPa North 5.0 km/h 13.4 km/h 85% 0.0 mm 215 W/m2
09:47 9.7 °C 7.1 °C 1025.6 hPa North 3.5 km/h 12.2 km/h 84% 0.0 mm 83 W/m2
09:52 10.3 °C 7.2 °C 1025.3 hPa North 1.1 km/h 7.2 km/h 81% 0.0 mm 59 W/m2
09:57 10.7 °C 7.0 °C 1025.6 hPa NNE 2.6 km/h 8.7 km/h 78% 0.0 mm 54 W/m2
10:02 11.4 °C 7.3 °C 1025.6 hPa North 3.5 km/h 8.7 km/h 76% 0.0 mm 52 W/m2
10:07 11.7 °C 7.2 °C 1025.6 hPa North 8.7 km/h 12.2 km/h 74% 0.0 mm 51 W/m2
10:12 11.8 °C 7.1 °C 1025.6 hPa North 5.0 km/h 12.2 km/h 73% 0.0 mm 50 W/m2
10:17 12.1 °C 7.0 °C 1025.3 hPa North 7.2 km/h 12.2 km/h 71% 0.0 mm 50 W/m2
10:22 12.5 °C 7.6 °C 1025.6 hPa North 7.2 km/h 12.2 km/h 72% 0.0 mm 51 W/m2
10:27 12.8 °C 7.7 °C 1025.3 hPa North 7.2 km/h 15.8 km/h 71% 0.0 mm 54 W/m2
10:32 13.0 °C 7.0 °C 1025.3 hPa NNE 11.1 km/h 15.8 km/h 67% 0.0 mm 72 W/m2
10:37 13.2 °C 6.8 °C 1025.3 hPa NNE 5.0 km/h 18.3 km/h 65% 0.0 mm 114 W/m2
10:42 13.6 °C 7.2 °C 1025.3 hPa North 11.1 km/h 19.5 km/h 65% 0.0 mm 273 W/m2
10:47 13.6 °C 6.9 °C 1025.6 hPa NNE 3.5 km/h 19.5 km/h 64% 0.0 mm 284 W/m2
10:52 14.3 °C 7.6 °C 1025.3 hPa NNE 8.7 km/h 19.5 km/h 64% 0.0 mm 338 W/m2
10:57 14.3 °C 6.9 °C 1025.3 hPa North 11.1 km/h 15.8 km/h 61% 0.0 mm 328 W/m2
11:16 14.0 °C 6.4 °C 1024.9 hPa North 15.8 km/h 20.9 km/h 60% 0.0 mm 299 W/m2
11:21 14.1 °C 6.4 °C 1025.3 hPa North 6.1 km/h 19.5 km/h 60% 0.0 mm 294 W/m2
11:26 14.3 °C 6.4 °C 1024.9 hPa North 9.7 km/h 19.5 km/h 59% 0.0 mm 287 W/m2
11:31 14.3 °C 6.2 °C 1024.9 hPa North 9.7 km/h 23.3 km/h 58% 0.0 mm 299 W/m2
11:36 14.6 °C 6.4 °C 1024.9 hPa North 11.1 km/h 23.3 km/h 58% 0.0 mm 305 W/m2
11:41 14.9 °C 6.7 °C 1024.9 hPa North 11.1 km/h 20.9 km/h 58% 0.0 mm 297 W/m2
11:46 15.2 °C 7.0 °C 1024.6 hPa NNE 11.1 km/h 18.3 km/h 58% 0.0 mm 311 W/m2
11:51 15.6 °C 6.8 °C 1024.6 hPa NNE 12.2 km/h 20.9 km/h 56% 0.0 mm 312 W/m2
11:56 15.3 °C 6.6 °C 1024.6 hPa NNE 11.1 km/h 20.9 km/h 56% 0.0 mm 320 W/m2
12:01 15.5 °C 6.8 °C 1024.6 hPa NNE 11.1 km/h 20.9 km/h 56% 0.0 mm 286 W/m2
12:06 15.4 °C 6.4 °C 1024.6 hPa NNE 9.7 km/h 19.5 km/h 55% 0.0 mm 306 W/m2
12:11 15.9 °C 7.2 °C 1024.6 hPa North 9.7 km/h 19.5 km/h 56% 0.0 mm 300 W/m2
12:16 15.9 °C 6.9 °C 1024.3 hPa North 9.7 km/h 15.8 km/h 55% 0.0 mm 272 W/m2
12:21 15.9 °C 7.2 °C 1024.3 hPa North 11.1 km/h 15.8 km/h 56% 0.0 mm 248 W/m2
12:26 16.0 °C 6.7 °C 1024.3 hPa North 12.2 km/h 15.8 km/h 54% 0.0 mm 270 W/m2
12:31 16.0 °C 6.9 °C 1023.9 hPa North 8.7 km/h 15.8 km/h 55% 0.0 mm 254 W/m2
12:36 16.1 °C 6.8 °C 1023.9 hPa North 6.1 km/h 14.8 km/h 54% 0.0 mm 262 W/m2
12:41 16.0 °C 6.4 °C 1023.6 hPa North 9.7 km/h 20.9 km/h 53% 0.0 mm 245 W/m2
12:46 15.9 °C 6.6 °C 1023.6 hPa North 9.7 km/h 20.9 km/h 54% 0.0 mm 250 W/m2
12:51 16.1 °C 6.5 °C 1023.6 hPa NNE 8.7 km/h 18.3 km/h 53% 0.0 mm 270 W/m2
12:56 16.3 °C 6.7 °C 1023.6 hPa NNE 13.4 km/h 19.5 km/h 53% 0.0 mm 241 W/m2
13:01 16.2 °C 5.5 °C 1023.6 hPa North 12.2 km/h 20.9 km/h 49% 0.0 mm 231 W/m2
13:06 16.0 °C 5.3 °C 1023.2 hPa NW 14.8 km/h 20.9 km/h 49% 0.0 mm 284 W/m2
13:11 16.3 °C 5.6 °C 1023.2 hPa NW 12.2 km/h 20.9 km/h 49% 0.0 mm 308 W/m2
13:16 16.6 °C 5.8 °C 1023.2 hPa NNW 12.2 km/h 21.9 km/h 49% 0.0 mm 280 W/m2
13:21 16.6 °C 5.6 °C 1022.9 hPa NNW 8.7 km/h 21.9 km/h 48% 0.0 mm 233 W/m2
13:26 16.5 °C 5.2 °C 1023.2 hPa NNW 15.8 km/h 24.5 km/h 47% 0.0 mm 228 W/m2
13:31 16.3 °C 5.6 °C 1022.9 hPa NNW 12.2 km/h 24.5 km/h 49% 0.0 mm 198 W/m2
13:36 16.4 °C 5.9 °C 1022.9 hPa NW 12.2 km/h 24.5 km/h 50% 0.0 mm 174 W/m2
13:41 16.1 °C 5.9 °C 1022.9 hPa NW 13.4 km/h 19.5 km/h 51% 0.0 mm 177 W/m2
13:46 16.1 °C 5.9 °C 1022.9 hPa NNW 8.7 km/h 18.3 km/h 51% 0.0 mm 168 W/m2
13:51 16.2 °C 6.1 °C 1022.9 hPa NNW 9.7 km/h 17.2 km/h 51% 0.0 mm 162 W/m2
13:56 16.0 °C 6.2 °C 1022.6 hPa NW 6.1 km/h 17.2 km/h 52% 0.0 mm 153 W/m2
14:06 15.6 °C 6.1 °C 1022.6 hPa NW 8.7 km/h 19.5 km/h 53% 0.0 mm 154 W/m2
14:11 15.7 °C 6.2 °C 1022.9 hPa NW 8.7 km/h 19.5 km/h 53% 0.0 mm 155 W/m2
14:16 15.6 °C 6.1 °C 1022.9 hPa NW 8.7 km/h 17.2 km/h 53% 0.0 mm 151 W/m2
14:21 15.6 °C 6.1 °C 1022.6 hPa NW 11.1 km/h 17.2 km/h 53% 0.0 mm 151 W/m2
14:26 15.7 °C 6.4 °C 1022.6 hPa NNW 9.7 km/h 14.8 km/h 54% 0.0 mm 142 W/m2
14:31 15.7 °C 6.4 °C 1022.6 hPa NW 8.7 km/h 15.8 km/h 54% 0.0 mm 134 W/m2
14:41 15.5 °C 5.9 °C 1022.6 hPa NNW 13.4 km/h 18.3 km/h 53% 0.0 mm 132 W/m2
14:46 15.5 °C 5.9 °C 1022.6 hPa NNW 7.2 km/h 18.3 km/h 53% 0.0 mm 127 W/m2
14:51 15.4 °C 5.9 °C 1022.6 hPa NNW 7.2 km/h 18.3 km/h 53% 0.0 mm 122 W/m2
14:56 15.4 °C 6.2 °C 1022.6 hPa NNW 8.7 km/h 14.8 km/h 54% 0.0 mm 122 W/m2
15:01 15.4 °C 6.2 °C 1022.6 hPa NNW 7.2 km/h 15.8 km/h 54% 0.0 mm 117 W/m2
15:06 15.3 °C 5.8 °C 1022.6 hPa NNW 7.2 km/h 25.6 km/h 53% 0.0 mm 108 W/m2
15:11 15.2 °C 5.9 °C 1022.9 hPa NNW 8.7 km/h 25.6 km/h 54% 0.0 mm 106 W/m2
15:16 15.2 °C 5.9 °C 1022.9 hPa NNW 7.2 km/h 14.8 km/h 54% 0.0 mm 103 W/m2
15:21 15.1 °C 5.9 °C 1022.9 hPa NNW 7.2 km/h 14.8 km/h 54% 0.0 mm 98 W/m2
15:26 15.0 °C 6.1 °C 1022.9 hPa NNW 9.7 km/h 19.5 km/h 55% 0.0 mm 95 W/m2
15:31 14.9 °C 6.2 °C 1022.9 hPa NNW 6.1 km/h 19.5 km/h 56% 0.0 mm 88 W/m2
15:36 14.9 °C 6.4 °C 1022.9 hPa North 5.0 km/h 14.8 km/h 57% 0.0 mm 82 W/m2
15:41 14.8 °C 6.6 °C 1022.9 hPa North 7.2 km/h 14.8 km/h 58% 0.0 mm 73 W/m2
15:46 14.7 °C 6.3 °C 1022.9 hPa North 7.2 km/h 20.9 km/h 57% 0.0 mm 63 W/m2
15:51 14.5 °C 6.1 °C 1022.6 hPa North 8.7 km/h 20.9 km/h 57% 0.0 mm 57 W/m2
15:56 14.4 °C 6.2 °C 1022.6 hPa North 6.1 km/h 17.2 km/h 58% 0.0 mm 49 W/m2
16:01 14.4 °C 6.5 °C 1022.6 hPa North 5.0 km/h 14.8 km/h 59% 0.0 mm 46 W/m2
16:12 14.5 °C 7.1 °C 1022.2 hPa NNE 8.7 km/h 12.2 km/h 61% 0.0 mm 63 W/m2
16:17 14.9 °C 7.4 °C 1022.2 hPa NNE 6.1 km/h 11.1 km/h 61% 0.0 mm 68 W/m2
16:22 15.4 °C 7.7 °C 1022.2 hPa North 6.1 km/h 11.1 km/h 60% 0.0 mm 65 W/m2
16:27 15.2 °C 7.2 °C 1022.6 hPa North 3.5 km/h 8.7 km/h 59% 0.0 mm 58 W/m2
16:32 14.8 °C 7.1 °C 1022.2 hPa North 3.5 km/h 12.2 km/h 60% 0.0 mm 50 W/m2
16:37 14.6 °C 7.2 °C 1022.2 hPa NNW 8.7 km/h 12.2 km/h 61% 0.0 mm 42 W/m2
16:42 14.3 °C 6.9 °C 1022.6 hPa NNW 6.1 km/h 12.2 km/h 61% 0.0 mm 35 W/m2
16:47 14.1 °C 6.9 °C 1022.2 hPa NNW 5.0 km/h 12.2 km/h 62% 0.0 mm 30 W/m2
16:52 13.9 °C 7.2 °C 1022.6 hPa NNW 7.2 km/h 14.8 km/h 64% 0.0 mm 25 W/m2
16:57 13.6 °C 6.9 °C 1022.2 hPa North 6.1 km/h 14.8 km/h 64% 0.0 mm 20 W/m2
17:02 13.6 °C 7.2 °C 1022.6 hPa North 6.1 km/h 13.4 km/h 65% 0.0 mm 14 W/m2
17:07 13.4 °C 6.9 °C 1022.2 hPa North 5.0 km/h 12.2 km/h 65% 0.0 mm 9 W/m2
17:12 13.3 °C 7.1 °C 1022.2 hPa North 2.6 km/h 9.7 km/h 66% 0.0 mm 5 W/m2
17:17 13.1 °C 6.9 °C 1022.2 hPa NNE 1.1 km/h 8.7 km/h 66% 0.0 mm 2 W/m2
17:22 12.8 °C 6.8 °C 1022.2 hPa NNE 2.6 km/h 8.7 km/h 67% 0.0 mm 0 W/m2
17:27 12.6 °C 7.1 °C 1022.2 hPa NNE 6.1 km/h 7.2 km/h 69% 0.0 mm 0 W/m2
17:32 12.5 °C 6.9 °C 1022.2 hPa North 6.1 km/h 7.2 km/h 69% 0.0 mm 0 W/m2
17:37 12.5 °C 6.9 °C 1022.2 hPa North 6.1 km/h 8.7 km/h 69% 0.0 mm 0 W/m2
17:42 12.5 °C 6.9 °C 1022.2 hPa North 3.5 km/h 8.7 km/h 69% 0.0 mm 0 W/m2
17:47 12.4 °C 6.9 °C 1022.2 hPa North 3.5 km/h 8.7 km/h 69% 0.0 mm 0 W/m2
17:52 12.3 °C 7.0 °C 1022.2 hPa NNE 2.6 km/h 8.7 km/h 70% 0.0 mm 0 W/m2
17:57 12.1 °C 6.8 °C 1022.2 hPa NE 1.1 km/h 6.1 km/h 70% 0.0 mm 0 W/m2
18:02 12.0 °C 6.9 °C 1022.2 hPa Calm   3.5 km/h 71% 0.0 mm 0 W/m2
18:07 11.9 °C 7.0 °C 1022.2 hPa NE 1.1 km/h 5.0 km/h 72% 0.0 mm 0 W/m2
18:12 11.8 °C 6.9 °C 1022.2 hPa NE 2.6 km/h 5.0 km/h 72% 0.0 mm 0 W/m2
18:17 11.9 °C 7.0 °C 1022.2 hPa NNE 2.6 km/h 9.7 km/h 72% 0.0 mm 0 W/m2
18:22 12.0 °C 6.9 °C 1022.2 hPa North 2.6 km/h 9.7 km/h 71% 0.0 mm 0 W/m2
18:27 12.2 °C 6.9 °C 1022.2 hPa North 3.5 km/h 7.2 km/h 70% 0.0 mm 0 W/m2
18:32 12.2 °C 6.7 °C 1022.2 hPa North 3.5 km/h 7.2 km/h 69% 0.0 mm 0 W/m2
18:37 12.3 °C 6.8 °C 1022.6 hPa North 2.6 km/h 7.2 km/h 69% 0.0 mm 0 W/m2
18:42 12.3 °C 6.8 °C 1022.6 hPa NNW 5.0 km/h 7.2 km/h 69% 0.0 mm 0 W/m2
18:47 12.2 °C 6.9 °C 1022.2 hPa NNW 5.0 km/h 9.7 km/h 70% 0.0 mm 0 W/m2
18:52 12.2 °C 6.9 °C 1022.2 hPa North 5.0 km/h 9.7 km/h 70% 0.0 mm 0 W/m2
18:57 12.1 °C 6.8 °C 1022.2 hPa North 6.1 km/h 9.7 km/h 70% 0.0 mm 0 W/m2
19:02 12.1 °C 6.8 °C 1022.6 hPa North 5.0 km/h 12.2 km/h 70% 0.0 mm 0 W/m2
19:07 12.1 °C 7.0 °C 1022.6 hPa NNW 5.0 km/h 12.2 km/h 71% 0.0 mm 0 W/m2
19:12 12.0 °C 6.9 °C 1022.6 hPa North 5.0 km/h 8.7 km/h 71% 0.0 mm 0 W/m2
19:17 12.0 °C 6.9 °C 1022.2 hPa North 9.7 km/h 13.4 km/h 71% 0.0 mm 0 W/m2
19:22 12.0 °C 6.7 °C 1022.2 hPa North 3.5 km/h 13.4 km/h 70% 0.0 mm 0 W/m2
19:27 11.9 °C 7.0 °C 1022.2 hPa NNW 3.5 km/h 13.4 km/h 72% 0.0 mm 0 W/m2
19:32 11.9 °C 7.0 °C 1022.6 hPa NNW 5.0 km/h 8.7 km/h 72% 0.0 mm 0 W/m2
19:37 11.9 °C 7.0 °C 1022.6 hPa NNW 5.0 km/h 8.7 km/h 72% 0.0 mm 0 W/m2
19:42 11.7 °C 6.8 °C 1022.2 hPa NNW 5.0 km/h 8.7 km/h 72% 0.0 mm 0 W/m2
19:47 11.6 °C 6.7 °C 1022.2 hPa NNW 5.0 km/h 8.7 km/h 72% 0.0 mm 0 W/m2
19:52 11.5 °C 6.6 °C 1022.6 hPa NNW 5.0 km/h 8.7 km/h 72% 0.0 mm 0 W/m2
19:57 11.6 °C 6.7 °C 1022.2 hPa North 3.5 km/h 8.7 km/h 72% 0.0 mm 0 W/m2
20:02 11.6 °C 6.7 °C 1022.2 hPa NNW 2.6 km/h 8.7 km/h 72% 0.0 mm 0 W/m2
20:07 11.6 °C 6.7 °C 1022.2 hPa NNW 2.6 km/h 5.0 km/h 72% 0.0 mm 0 W/m2
20:12 11.5 °C 6.6 °C 1022.2 hPa Calm   5.0 km/h 72% 0.0 mm 0 W/m2
20:17 11.4 °C 6.6 °C 1022.2 hPa Calm   3.5 km/h 72% 0.0 mm 0 W/m2
20:23 11.3 °C 6.4 °C 1022.2 hPa Calm   1.1 km/h 72% 0.0 mm 0 W/m2
20:28 11.2 °C 6.6 °C 1022.2 hPa South 1.1 km/h 2.6 km/h 73% 0.0 mm 0 W/m2
20:33 11.1 °C 6.4 °C 1022.2 hPa Calm   2.6 km/h 73% 0.0 mm 0 W/m2
20:38 11.1 °C 6.4 °C 1022.2 hPa Calm   2.6 km/h 73% 0.0 mm 0 W/m2
20:43 10.9 °C 6.4 °C 1022.2 hPa Calm   1.1 km/h 74% 0.0 mm 0 W/m2
20:48 10.9 °C 6.7 °C 1022.2 hPa Calm   1.1 km/h 75% 0.0 mm 0 W/m2
20:53 10.9 °C 6.7 °C 1022.2 hPa North 2.6 km/h 5.0 km/h 75% 0.0 mm 0 W/m2
20:58 10.9 °C 6.7 °C 1022.2 hPa North 2.6 km/h 5.0 km/h 75% 0.0 mm 0 W/m2
21:03 11.1 °C 6.7 °C 1022.2 hPa North 3.5 km/h 6.1 km/h 74% 0.0 mm 0 W/m2
21:08 11.1 °C 6.7 °C 1022.2 hPa North 5.0 km/h 6.1 km/h 74% 0.0 mm 0 W/m2
21:13 11.1 °C 6.8 °C 1022.2 hPa NNW 3.5 km/h 6.1 km/h 75% 0.0 mm 0 W/m2
21:23 11.1 °C 6.8 °C 1022.2 hPa NNW 3.5 km/h 7.2 km/h 75% 0.0 mm 0 W/m2
21:28 11.2 °C 6.9 °C 1022.2 hPa NNW 3.5 km/h 7.2 km/h 75% 0.0 mm 0 W/m2
21:33 11.3 °C 7.1 °C 1022.2 hPa NNW 5.0 km/h 7.2 km/h 75% 0.0 mm 0 W/m2
21:40 11.4 °C 7.1 °C 1021.9 hPa North 2.6 km/h 7.2 km/h 75% 0.0 mm 0 W/m2
21:45 11.4 °C 7.1 °C 1021.9 hPa North 5.0 km/h 7.2 km/h 75% 0.0 mm 0 W/m2
21:50 11.5 °C 7.2 °C 1022.2 hPa NNW 7.2 km/h 9.7 km/h 75% 0.0 mm 0 W/m2
21:55 11.7 °C 7.2 °C 1021.9 hPa NNW 6.1 km/h 9.7 km/h 74% 0.0 mm 0 W/m2
22:00 11.7 °C 7.2 °C 1021.9 hPa NNW 5.0 km/h 9.7 km/h 74% 0.0 mm 0 W/m2
22:05 11.9 °C 7.4 °C 1021.9 hPa NNW 6.1 km/h 9.7 km/h 74% 0.0 mm 0 W/m2
22:10 12.0 °C 7.1 °C 1021.9 hPa North 5.0 km/h 9.7 km/h 72% 0.0 mm 0 W/m2
22:15 12.1 °C 7.2 °C 1021.9 hPa NNW 5.0 km/h 9.7 km/h 72% 0.0 mm 0 W/m2
22:21 12.1 °C 7.2 °C 1021.9 hPa North 2.6 km/h 8.7 km/h 72% 0.0 mm 0 W/m2
22:26 11.9 °C 7.2 °C 1021.9 hPa NNE 5.0 km/h 7.2 km/h 73% 0.0 mm 0 W/m2
22:31 11.8 °C 7.3 °C 1021.6 hPa North 3.5 km/h 7.2 km/h 74% 0.0 mm 0 W/m2
22:36 11.7 °C 7.2 °C 1021.6 hPa North 3.5 km/h 7.2 km/h 74% 0.0 mm 0 W/m2
22:41 11.6 °C 7.1 °C 1021.9 hPa North 2.6 km/h 6.1 km/h 74% 0.0 mm 0 W/m2
22:46 11.6 °C 7.1 °C 1021.9 hPa North 2.6 km/h 6.1 km/h 74% 0.0 mm 0 W/m2
22:51 11.6 °C 7.3 °C 1021.9 hPa North 2.6 km/h 5.0 km/h 75% 0.0 mm 0 W/m2
22:56 11.7 °C 7.4 °C 1021.9 hPa Calm   5.0 km/h 75% 0.0 mm 0 W/m2
23:01 11.6 °C 7.3 °C 1021.9 hPa North 1.1 km/h 3.5 km/h 75% 0.0 mm 0 W/m2
23:06 11.5 °C 7.2 °C 1021.9 hPa Calm   3.5 km/h 75% 0.0 mm 0 W/m2
23:11 11.5 °C 7.2 °C 1021.6 hPa WSW 1.1 km/h 2.6 km/h 75% 0.0 mm 0 W/m2
23:16 11.3 °C 7.1 °C 1021.9 hPa Calm   2.6 km/h 75% 0.0 mm 0 W/m2
23:21 11.3 °C 7.1 °C 1021.9 hPa Calm   2.6 km/h 75% 0.0 mm 0 W/m2
23:26 11.3 °C 7.1 °C 1021.6 hPa Calm   2.6 km/h 75% 0.0 mm 0 W/m2
23:31 11.3 °C 7.2 °C 1021.6 hPa Calm   1.1 km/h 76% 0.0 mm 0 W/m2
23:36 11.2 °C 7.1 °C 1021.6 hPa Calm     76% 0.0 mm 0 W/m2
23:41 11.1 °C 7.1 °C 1021.6 hPa West 2.6 km/h 5.0 km/h 76% 0.0 mm 0 W/m2
23:46 11.2 °C 7.1 °C 1021.6 hPa West 2.6 km/h 5.0 km/h 76% 0.0 mm 0 W/m2
23:56 11.0 °C 7.1 °C 1021.6 hPa West 1.1 km/h 3.5 km/h 77% 0.0 mm 0 W/m2
Northern Hawkes Bay. New Zealand Historic Data
Compliments of Weather Underground - 2.25 mb